sensor_id;sensor_type;location;lat;lon;timestamp;pressure;altitude;pressure_sealevel;temperature;humidity
71476;BME280;59286;59.274;17.974;2023-03-25T00:01:06;98295.25;;;2.58;100.00
71476;BME280;59286;59.274;17.974;2023-03-25T00:03:34;98309.19;;;2.48;100.00
71476;BME280;59286;59.274;17.974;2023-03-25T00:06:04;98324.06;;;2.43;100.00
71476;BME280;59286;59.274;17.974;2023-03-25T00:08:30;98335.03;;;2.18;100.00
71476;BME280;59286;59.274;17.974;2023-03-25T00:10:58;98336.78;;;2.09;100.00
71476;BME280;59286;59.274;17.974;2023-03-25T00:13:24;98351.38;;;1.91;100.00
71476;BME280;59286;59.274;17.974;2023-03-25T00:15:51;98361.56;;;1.74;100.00
71476;BME280;59286;59.274;17.974;2023-03-25T00:18:20;98375.13;;;1.79;100.00
71476;BME280;59286;59.274;17.974;2023-03-25T00:20:51;98374.06;;;1.58;100.00
71476;BME280;59286;59.274;17.974;2023-03-25T00:23:20;98397.00;;;1.60;100.00
71476;BME280;59286;59.274;17.974;2023-03-25T00:25:46;98403.22;;;1.45;100.00
71476;BME280;59286;59.274;17.974;2023-03-25T00:28:13;98402.34;;;1.36;100.00
71476;BME280;59286;59.274;17.974;2023-03-25T00:30:40;98417.09;;;1.36;100.00
71476;BME280;59286;59.274;17.974;2023-03-25T00:33:06;98431.13;;;1.43;100.00
71476;BME280;59286;59.274;17.974;2023-03-25T00:35:36;98438.47;;;1.36;100.00
71476;BME280;59286;59.274;17.974;2023-03-25T00:38:01;98446.50;;;1.35;100.00
71476;BME280;59286;59.274;17.974;2023-03-25T00:40:28;98453.75;;;1.33;100.00
71476;BME280;59286;59.274;17.974;2023-03-25T00:42:55;98474.22;;;1.29;100.00
71476;BME280;59286;59.274;17.974;2023-03-25T00:45:21;98471.34;;;1.17;100.00
71476;BME280;59286;59.274;17.974;2023-03-25T00:47:46;98477.06;;;1.14;100.00
71476;BME280;59286;59.274;17.974;2023-03-25T00:50:12;98486.06;;;1.17;100.00
71476;BME280;59286;59.274;17.974;2023-03-25T00:52:38;98496.75;;;1.24;100.00
71476;BME280;59286;59.274;17.974;2023-03-25T00:55:04;98500.28;;;1.14;100.00
71476;BME280;59286;59.274;17.974;2023-03-25T00:57:29;98513.38;;;1.18;100.00
71476;BME280;59286;59.274;17.974;2023-03-25T00:59:55;98511.25;;;1.06;100.00
71476;BME280;59286;59.274;17.974;2023-03-25T01:02:22;98523.50;;;1.14;100.00
71476;BME280;59286;59.274;17.974;2023-03-25T01:04:48;98537.06;;;1.06;100.00
71476;BME280;59286;59.274;17.974;2023-03-25T01:07:17;98528.91;;;0.99;100.00
71476;BME280;59286;59.274;17.974;2023-03-25T01:09:45;98548.81;;;1.12;100.00
71476;BME280;59286;59.274;17.974;2023-03-25T01:12:12;98555.94;;;1.02;100.00
71476;BME280;59286;59.274;17.974;2023-03-25T01:14:37;98552.78;;;1.05;100.00
71476;BME280;59286;59.274;17.974;2023-03-25T01:17:03;98552.94;;;1.13;100.00
71476;BME280;59286;59.274;17.974;2023-03-25T01:19:28;98560.97;;;1.12;100.00
71476;BME280;59286;59.274;17.974;2023-03-25T01:21:54;98575.84;;;1.15;100.00
71476;BME280;59286;59.274;17.974;2023-03-25T01:24:19;98574.63;;;0.93;100.00
71476;BME280;59286;59.274;17.974;2023-03-25T01:26:45;98583.72;;;0.91;100.00
71476;BME280;59286;59.274;17.974;2023-03-25T01:29:11;98581.53;;;0.98;100.00
71476;BME280;59286;59.274;17.974;2023-03-25T01:31:37;98590.66;;;1.09;100.00
71476;BME280;59286;59.274;17.974;2023-03-25T01:34:03;98590.28;;;0.97;100.00
71476;BME280;59286;59.274;17.974;2023-03-25T01:36:28;98605.03;;;0.96;100.00
71476;BME280;59286;59.274;17.974;2023-03-25T01:38:54;98600.69;;;0.92;100.00
71476;BME280;59286;59.274;17.974;2023-03-25T01:41:22;98610.94;;;0.97;100.00
71476;BME280;59286;59.274;17.974;2023-03-25T01:44:06;98608.34;;;0.97;100.00
71476;BME280;59286;59.274;17.974;2023-03-25T01:46:32;98627.13;;;1.03;100.00
71476;BME280;59286;59.274;17.974;2023-03-25T01:49:00;98629.41;;;1.04;100.00
71476;BME280;59286;59.274;17.974;2023-03-25T01:51:29;98628.38;;;1.05;100.00
71476;BME280;59286;59.274;17.974;2023-03-25T01:53:56;98635.06;;;1.06;100.00
71476;BME280;59286;59.274;17.974;2023-03-25T01:56:26;98636.59;;;1.07;100.00
71476;BME280;59286;59.274;17.974;2023-03-25T01:58:55;98650.97;;;1.13;100.00
71476;BME280;59286;59.274;17.974;2023-03-25T02:01:21;98656.13;;;1.13;100.00
71476;BME280;59286;59.274;17.974;2023-03-25T02:03:48;98661.81;;;1.10;100.00
71476;BME280;59286;59.274;17.974;2023-03-25T02:06:18;98676.84;;;1.08;100.00
71476;BME280;59286;59.274;17.974;2023-03-25T02:08:47;98674.72;;;0.91;100.00
71476;BME280;59286;59.274;17.974;2023-03-25T02:11:13;98687.00;;;0.99;100.00
71476;BME280;59286;59.274;17.974;2023-03-25T02:13:39;98679.81;;;0.96;100.00
71476;BME280;59286;59.274;17.974;2023-03-25T02:22:14;98705.88;;;0.95;100.00
71476;BME280;59286;59.274;17.974;2023-03-25T02:27:55;98712.69;;;0.86;100.00
71476;BME280;59286;59.274;17.974;2023-03-25T02:30:34;98721.97;;;0.87;100.00
71476;BME280;59286;59.274;17.974;2023-03-25T02:36:03;98722.66;;;0.74;100.00
71476;BME280;59286;59.274;17.974;2023-03-25T02:38:49;98730.38;;;0.74;100.00
71476;BME280;59286;59.274;17.974;2023-03-25T02:41:41;98728.06;;;0.72;100.00
71476;BME280;59286;59.274;17.974;2023-03-25T02:44:22;98735.84;;;0.67;100.00
71476;BME280;59286;59.274;17.974;2023-03-25T02:46:54;98744.94;;;0.60;100.00
71476;BME280;59286;59.274;17.974;2023-03-25T02:49:25;98741.50;;;0.46;100.00
71476;BME280;59286;59.274;17.974;2023-03-25T02:52:13;98760.09;;;0.43;99.55
71476;BME280;59286;59.274;17.974;2023-03-25T02:54:41;98750.66;;;0.33;99.55
71476;BME280;59286;59.274;17.974;2023-03-25T02:57:11;98768.56;;;0.43;100.00
71476;BME280;59286;59.274;17.974;2023-03-25T02:59:38;98774.78;;;0.42;99.23
71476;BME280;59286;59.274;17.974;2023-03-25T03:02:09;98783.00;;;0.44;98.96
71476;BME280;59286;59.274;17.974;2023-03-25T03:04:51;98773.50;;;0.40;98.06
71476;BME280;59286;59.274;17.974;2023-03-25T03:07:38;98778.66;;;0.40;97.68
71476;BME280;59286;59.274;17.974;2023-03-25T03:10:21;98769.72;;;0.32;97.28
71476;BME280;59286;59.274;17.974;2023-03-25T03:13:19;98777.72;;;0.31;97.56
71476;BME280;59286;59.274;17.974;2023-03-25T03:18:43;98785.63;;;0.39;97.01
71476;BME280;59286;59.274;17.974;2023-03-25T03:21:23;98780.47;;;0.39;96.69
71476;BME280;59286;59.274;17.974;2023-03-25T03:26:58;98774.56;;;0.39;97.09
71476;BME280;59286;59.274;17.974;2023-03-25T03:29:46;98777.72;;;0.31;97.89
71476;BME280;59286;59.274;17.974;2023-03-25T03:35:05;98781.34;;;0.30;97.42
71476;BME280;59286;59.274;17.974;2023-03-25T03:37:37;98788.34;;;0.24;97.52
71476;BME280;59286;59.274;17.974;2023-03-25T03:40:07;98805.84;;;0.27;97.57
71476;BME280;59286;59.274;17.974;2023-03-25T03:42:44;98812.78;;;0.27;97.76
71476;BME280;59286;59.274;17.974;2023-03-25T03:45:16;98819.34;;;0.14;97.48
71476;BME280;59286;59.274;17.974;2023-03-25T03:47:46;98817.09;;;0.03;96.80
71476;BME280;59286;59.274;17.974;2023-03-25T03:50:17;98829.31;;;0.21;96.78
71476;BME280;59286;59.274;17.974;2023-03-25T03:52:57;98829.63;;;0.14;95.93
71476;BME280;59286;59.274;17.974;2023-03-25T03:55:29;98846.88;;;0.19;95.02
71476;BME280;59286;59.274;17.974;2023-03-25T03:58:00;98837.03;;;0.26;95.75
71476;BME280;59286;59.274;17.974;2023-03-25T04:00:30;98849.91;;;0.26;95.67
71476;BME280;59286;59.274;17.974;2023-03-25T04:03:22;98849.19;;;0.15;95.14
71476;BME280;59286;59.274;17.974;2023-03-25T04:05:56;98846.38;;;0.12;95.68
71476;BME280;59286;59.274;17.974;2023-03-25T04:08:30;98849.22;;;0.10;95.05
71476;BME280;59286;59.274;17.974;2023-03-25T04:11:09;98854.16;;;0.07;95.43
71476;BME280;59286;59.274;17.974;2023-03-25T04:13:38;98857.25;;;0.09;95.22
71476;BME280;59286;59.274;17.974;2023-03-25T04:16:05;98861.09;;;0.11;95.53
71476;BME280;59286;59.274;17.974;2023-03-25T04:18:31;98854.16;;;0.07;93.68
71476;BME280;59286;59.274;17.974;2023-03-25T04:20:58;98858.03;;;0.04;94.89
71476;BME280;59286;59.274;17.974;2023-03-25T04:23:25;98858.53;;;0.06;95.41
71476;BME280;59286;59.274;17.974;2023-03-25T04:25:54;98860.00;;;0.17;94.02
71476;BME280;59286;59.274;17.974;2023-03-25T04:28:19;98858.75;;;0.10;94.80
71476;BME280;59286;59.274;17.974;2023-03-25T04:30:46;98863.41;;;0.08;92.89
71476;BME280;59286;59.274;17.974;2023-03-25T04:33:23;98857.78;;;0.00;93.20
71476;BME280;59286;59.274;17.974;2023-03-25T04:35:50;98865.00;;;0.04;94.59
71476;BME280;59286;59.274;17.974;2023-03-25T04:38:16;98849.56;;;0.04;94.43
71476;BME280;59286;59.274;17.974;2023-03-25T04:40:43;98862.16;;;0.05;94.57
71476;BME280;59286;59.274;17.974;2023-03-25T04:43:14;98873.47;;;0.04;94.05
71476;BME280;59286;59.274;17.974;2023-03-25T04:45:40;98891.13;;;0.21;95.37
71476;BME280;59286;59.274;17.974;2023-03-25T04:48:25;98897.81;;;0.27;93.12
71476;BME280;59286;59.274;17.974;2023-03-25T04:50:54;98903.41;;;0.34;94.65
71476;BME280;59286;59.274;17.974;2023-03-25T04:53:20;98899.38;;;0.23;94.69
71476;BME280;59286;59.274;17.974;2023-03-25T04:55:45;98910.16;;;0.30;94.12
71476;BME280;59286;59.274;17.974;2023-03-25T04:58:14;98923.06;;;0.25;93.84
71476;BME280;59286;59.274;17.974;2023-03-25T05:00:41;98927.72;;;0.23;94.06
71476;BME280;59286;59.274;17.974;2023-03-25T05:03:08;98913.75;;;0.29;93.83
71476;BME280;59286;59.274;17.974;2023-03-25T05:05:33;98931.47;;;0.40;93.89
71476;BME280;59286;59.274;17.974;2023-03-25T05:07:59;98937.41;;;0.41;94.47
71476;BME280;59286;59.274;17.974;2023-03-25T05:10:26;98944.91;;;0.32;93.54
71476;BME280;59286;59.274;17.974;2023-03-25T05:12:58;98936.44;;;0.27;93.83
71476;BME280;59286;59.274;17.974;2023-03-25T05:15:24;98923.09;;;0.20;93.42
71476;BME280;59286;59.274;17.974;2023-03-25T05:17:50;98925.16;;;0.18;92.86
71476;BME280;59286;59.274;17.974;2023-03-25T05:20:15;98921.56;;;0.19;92.35
71476;BME280;59286;59.274;17.974;2023-03-25T05:22:42;98933.94;;;0.17;92.13
71476;BME280;59286;59.274;17.974;2023-03-25T05:25:09;98917.44;;;0.18;92.73
71476;BME280;59286;59.274;17.974;2023-03-25T05:27:35;98906.59;;;0.21;93.01
71476;BME280;59286;59.274;17.974;2023-03-25T05:30:01;98919.47;;;0.21;92.57
71476;BME280;59286;59.274;17.974;2023-03-25T05:32:28;98919.22;;;0.22;92.29
71476;BME280;59286;59.274;17.974;2023-03-25T05:34:58;98920.56;;;0.15;91.62
71476;BME280;59286;59.274;17.974;2023-03-25T05:37:23;98960.72;;;0.16;92.13
71476;BME280;59286;59.274;17.974;2023-03-25T05:39:49;98962.50;;;0.20;92.67
71476;BME280;59286;59.274;17.974;2023-03-25T05:42:16;98969.94;;;0.27;93.20
71476;BME280;59286;59.274;17.974;2023-03-25T05:44:41;98951.66;;;0.23;91.93
71476;BME280;59286;59.274;17.974;2023-03-25T05:47:18;98956.53;;;0.30;92.83
71476;BME280;59286;59.274;17.974;2023-03-25T05:49:44;98949.22;;;0.42;92.26
71476;BME280;59286;59.274;17.974;2023-03-25T05:52:10;98949.91;;;0.52;92.10
71476;BME280;59286;59.274;17.974;2023-03-25T05:54:36;98953.81;;;0.50;91.84
71476;BME280;59286;59.274;17.974;2023-03-25T05:57:06;98947.16;;;0.44;91.48
71476;BME280;59286;59.274;17.974;2023-03-25T05:59:31;98956.91;;;0.52;90.94
71476;BME280;59286;59.274;17.974;2023-03-25T06:01:57;98965.66;;;0.56;91.49
71476;BME280;59286;59.274;17.974;2023-03-25T06:04:23;98962.47;;;0.64;91.76
71476;BME280;59286;59.274;17.974;2023-03-25T06:06:48;98971.16;;;0.78;91.54
71476;BME280;59286;59.274;17.974;2023-03-25T06:09:14;98978.34;;;0.81;91.03
71476;BME280;59286;59.274;17.974;2023-03-25T06:11:42;98978.88;;;0.78;90.38
71476;BME280;59286;59.274;17.974;2023-03-25T06:14:07;98972.03;;;0.63;90.49
71476;BME280;59286;59.274;17.974;2023-03-25T06:16:33;98986.19;;;0.66;91.60
71476;BME280;59286;59.274;17.974;2023-03-25T06:18:59;98975.81;;;0.71;92.03
71476;BME280;59286;59.274;17.974;2023-03-25T06:21:30;98978.16;;;0.72;90.86
71476;BME280;59286;59.274;17.974;2023-03-25T06:23:58;98985.84;;;0.77;90.70
71476;BME280;59286;59.274;17.974;2023-03-25T06:26:24;98990.19;;;0.82;90.60
71476;BME280;59286;59.274;17.974;2023-03-25T06:28:50;98980.97;;;0.76;89.53
71476;BME280;59286;59.274;17.974;2023-03-25T06:31:18;98988.66;;;0.81;88.81
71476;BME280;59286;59.274;17.974;2023-03-25T06:33:45;98997.63;;;0.88;89.44
71476;BME280;59286;59.274;17.974;2023-03-25T06:36:12;98999.47;;;0.83;88.67
71476;BME280;59286;59.274;17.974;2023-03-25T06:38:39;99007.88;;;0.93;89.43
71476;BME280;59286;59.274;17.974;2023-03-25T06:41:05;99002.72;;;0.93;89.96
71476;BME280;59286;59.274;17.974;2023-03-25T06:43:32;99004.66;;;1.12;88.97
71476;BME280;59286;59.274;17.974;2023-03-25T06:45:57;99001.09;;;1.08;87.47
71476;BME280;59286;59.274;17.974;2023-03-25T06:48:22;98998.44;;;1.13;88.21
71476;BME280;59286;59.274;17.974;2023-03-25T06:50:48;98992.41;;;0.93;87.40
71476;BME280;59286;59.274;17.974;2023-03-25T06:53:13;98985.28;;;0.85;88.05
71476;BME280;59286;59.274;17.974;2023-03-25T06:55:39;98999.47;;;0.83;88.73
71476;BME280;59286;59.274;17.974;2023-03-25T06:58:05;99002.81;;;0.83;89.00
71476;BME280;59286;59.274;17.974;2023-03-25T07:00:30;99015.13;;;0.91;88.61
71476;BME280;59286;59.274;17.974;2023-03-25T07:02:56;99021.50;;;0.99;88.51
71476;BME280;59286;59.274;17.974;2023-03-25T07:05:23;99023.53;;;1.07;88.52
71476;BME280;59286;59.274;17.974;2023-03-25T07:07:48;99026.31;;;1.16;88.23
71476;BME280;59286;59.274;17.974;2023-03-25T07:10:14;99010.66;;;1.02;88.13
71476;BME280;59286;59.274;17.974;2023-03-25T07:12:40;99018.59;;;1.11;88.48
71476;BME280;59286;59.274;17.974;2023-03-25T07:15:05;99017.28;;;1.13;89.92
71476;BME280;59286;59.274;17.974;2023-03-25T07:17:31;99027.31;;;1.15;89.24
71476;BME280;59286;59.274;17.974;2023-03-25T07:19:56;99025.03;;;1.13;88.57
71476;BME280;59286;59.274;17.974;2023-03-25T07:22:22;99021.81;;;1.26;89.03
71476;BME280;59286;59.274;17.974;2023-03-25T07:24:47;99026.69;;;1.28;89.20
71476;BME280;59286;59.274;17.974;2023-03-25T07:27:13;99007.97;;;1.17;89.45
71476;BME280;59286;59.274;17.974;2023-03-25T07:29:39;99026.53;;;1.19;88.39
71476;BME280;59286;59.274;17.974;2023-03-25T07:32:05;99025.75;;;1.19;88.67
71476;BME280;59286;59.274;17.974;2023-03-25T07:34:30;99025.19;;;1.22;89.62
71476;BME280;59286;59.274;17.974;2023-03-25T07:36:56;99034.22;;;1.24;89.40
71476;BME280;59286;59.274;17.974;2023-03-25T07:39:21;99030.91;;;1.19;89.13
71476;BME280;59286;59.274;17.974;2023-03-25T07:41:52;99041.19;;;1.24;89.66
71476;BME280;59286;59.274;17.974;2023-03-25T07:44:18;99044.47;;;1.34;89.32
71476;BME280;59286;59.274;17.974;2023-03-25T07:46:47;99032.13;;;1.26;88.82
71476;BME280;59286;59.274;17.974;2023-03-25T07:49:13;99037.34;;;1.21;89.44
71476;BME280;59286;59.274;17.974;2023-03-25T07:51:38;99031.63;;;1.24;89.36
71476;BME280;59286;59.274;17.974;2023-03-25T07:54:04;99044.47;;;1.34;89.45
71476;BME280;59286;59.274;17.974;2023-03-25T07:56:29;99057.31;;;1.39;89.24
71476;BME280;59286;59.274;17.974;2023-03-25T07:58:55;99033.09;;;1.35;90.45
71476;BME280;59286;59.274;17.974;2023-03-25T08:01:20;99042.50;;;1.50;89.27
71476;BME280;59286;59.274;17.974;2023-03-25T08:03:45;99044.56;;;1.48;88.57
71476;BME280;59286;59.274;17.974;2023-03-25T08:06:11;99051.06;;;1.45;87.68
71476;BME280;59286;59.274;17.974;2023-03-25T08:08:36;99054.19;;;1.42;88.48
71476;BME280;59286;59.274;17.974;2023-03-25T08:11:01;99050.03;;;1.46;88.38
71476;BME280;59286;59.274;17.974;2023-03-25T08:13:27;99050.03;;;1.46;88.32
71476;BME280;59286;59.274;17.974;2023-03-25T08:15:53;99047.00;;;1.39;89.27
71476;BME280;59286;59.274;17.974;2023-03-25T08:18:18;99048.66;;;1.54;89.96
71476;BME280;59286;59.274;17.974;2023-03-25T08:20:44;99046.88;;;1.49;89.03
71476;BME280;59286;59.274;17.974;2023-03-25T08:23:09;99051.75;;;1.56;89.49
71476;BME280;59286;59.274;17.974;2023-03-25T08:25:37;99040.91;;;1.54;89.55
71476;BME280;59286;59.274;17.974;2023-03-25T08:28:03;99045.94;;;1.40;91.05
71476;BME280;59286;59.274;17.974;2023-03-25T08:30:29;99046.00;;;1.35;91.65
71476;BME280;59286;59.274;17.974;2023-03-25T08:32:54;99039.81;;;1.31;90.92
71476;BME280;59286;59.274;17.974;2023-03-25T08:35:21;99042.97;;;1.23;91.85
71476;BME280;59286;59.274;17.974;2023-03-25T08:37:47;99042.00;;;1.19;91.30
71476;BME280;59286;59.274;17.974;2023-03-25T08:40:13;99047.03;;;1.34;91.36
71476;BME280;59286;59.274;17.974;2023-03-25T08:42:41;99040.91;;;1.25;92.50
71476;BME280;59286;59.274;17.974;2023-03-25T08:45:07;99046.25;;;1.34;92.21
71476;BME280;59286;59.274;17.974;2023-03-25T08:47:32;99035.25;;;1.23;92.48
71476;BME280;59286;59.274;17.974;2023-03-25T08:49:58;99034.22;;;1.24;92.20
71476;BME280;59286;59.274;17.974;2023-03-25T08:52:23;99038.31;;;1.25;90.74
71476;BME280;59286;59.274;17.974;2023-03-25T08:54:48;99035.75;;;1.25;92.57
71476;BME280;59286;59.274;17.974;2023-03-25T08:57:14;99047.13;;;1.24;91.59
71476;BME280;59286;59.274;17.974;2023-03-25T08:59:39;99054.31;;;1.27;92.57
71476;BME280;59286;59.274;17.974;2023-03-25T09:02:05;99055.38;;;1.26;93.26
71476;BME280;59286;59.274;17.974;2023-03-25T09:04:30;99054.88;;;1.24;92.35
71476;BME280;59286;59.274;17.974;2023-03-25T09:06:56;99063.56;;;1.33;92.95
71476;BME280;59286;59.274;17.974;2023-03-25T09:09:22;99058.09;;;1.40;92.79
71476;BME280;59286;59.274;17.974;2023-03-25T09:11:48;99042.97;;;1.23;92.67
71476;BME280;59286;59.274;17.974;2023-03-25T09:14:14;99042.97;;;1.23;92.84
71476;BME280;59286;59.274;17.974;2023-03-25T09:16:39;99044.50;;;1.29;93.10
71476;BME280;59286;59.274;17.974;2023-03-25T09:19:05;99049.25;;;1.17;93.04
71476;BME280;59286;59.274;17.974;2023-03-25T09:21:31;99047.25;;;1.09;94.00
71476;BME280;59286;59.274;17.974;2023-03-25T09:23:56;99058.00;;;1.16;93.97
71476;BME280;59286;59.274;17.974;2023-03-25T09:26:21;99065.19;;;1.24;94.04
71476;BME280;59286;59.274;17.974;2023-03-25T09:28:47;99050.56;;;1.15;94.71
71476;BME280;59286;59.274;17.974;2023-03-25T09:31:12;99057.38;;;1.29;95.24
71476;BME280;59286;59.274;17.974;2023-03-25T09:33:39;99043.75;;;1.29;94.35
71476;BME280;59286;59.274;17.974;2023-03-25T09:36:04;99053.97;;;1.39;93.89
71476;BME280;59286;59.274;17.974;2023-03-25T09:38:31;99053.16;;;1.43;94.19
71476;BME280;59286;59.274;17.974;2023-03-25T09:40:56;99039.75;;;1.41;95.18
71476;BME280;59286;59.274;17.974;2023-03-25T09:46:03;99040.28;;;1.38;95.25
71476;BME280;59286;59.274;17.974;2023-03-25T09:51:01;99037.66;;;1.43;96.74
71476;BME280;59286;59.274;17.974;2023-03-25T09:56:26;99055.41;;;1.50;93.90
71476;BME280;59286;59.274;17.974;2023-03-25T09:59:00;99067.63;;;1.39;94.05
71476;BME280;59286;59.274;17.974;2023-03-25T10:07:14;99064.72;;;1.46;95.00
71476;BME280;59286;59.274;17.974;2023-03-25T10:12:34;99060.84;;;1.48;96.49
71476;BME280;59286;59.274;17.974;2023-03-25T10:15:24;99056.25;;;1.45;95.87
71476;BME280;59286;59.274;17.974;2023-03-25T10:18:10;99049.75;;;1.48;95.79
71476;BME280;59286;59.274;17.974;2023-03-25T10:21:42;99041.81;;;1.39;95.48
71476;BME280;59286;59.274;17.974;2023-03-25T10:26:54;99026.13;;;1.36;95.90
71476;BME280;59286;59.274;17.974;2023-03-25T10:29:36;99017.66;;;1.30;95.26
71476;BME280;59286;59.274;17.974;2023-03-25T10:32:16;99030.34;;;1.27;94.38
71476;BME280;59286;59.274;17.974;2023-03-25T10:34:48;99029.84;;;1.20;94.60
71476;BME280;59286;59.274;17.974;2023-03-25T10:37:24;99035.34;;;1.13;95.91
71476;BME280;59286;59.274;17.974;2023-03-25T10:39:54;99037.09;;;1.18;94.94
71476;BME280;59286;59.274;17.974;2023-03-25T10:42:32;99043.09;;;1.13;95.32
71476;BME280;59286;59.274;17.974;2023-03-25T10:45:00;99043.03;;;1.18;96.20
71476;BME280;59286;59.274;17.974;2023-03-25T10:47:35;99045.31;;;1.25;96.23
71476;BME280;59286;59.274;17.974;2023-03-25T10:50:03;99033.50;;;1.19;96.36
71476;BME280;59286;59.274;17.974;2023-03-25T10:52:28;99032.72;;;1.18;96.05
71476;BME280;59286;59.274;17.974;2023-03-25T10:54:55;99027.78;;;1.22;95.50
71476;BME280;59286;59.274;17.974;2023-03-25T10:57:28;99013.63;;;1.19;95.35
71476;BME280;59286;59.274;17.974;2023-03-25T11:00:07;99008.47;;;1.19;95.72
71476;BME280;59286;59.274;17.974;2023-03-25T11:02:46;98984.88;;;1.02;95.74
71476;BME280;59286;59.274;17.974;2023-03-25T11:05:15;98998.41;;;0.84;95.83
71476;BME280;59286;59.274;17.974;2023-03-25T11:07:47;98987.13;;;0.75;96.73
71476;BME280;59286;59.274;17.974;2023-03-25T11:10:17;98972.25;;;0.67;96.71
71476;BME280;59286;59.274;17.974;2023-03-25T11:12:43;98981.97;;;0.75;96.81
71476;BME280;59286;59.274;17.974;2023-03-25T11:15:28;98966.72;;;0.83;97.25
71476;BME280;59286;59.274;17.974;2023-03-25T11:20:49;98966.09;;;0.63;97.27
71476;BME280;59286;59.274;17.974;2023-03-25T11:23:31;98968.72;;;0.58;97.52
71476;BME280;59286;59.274;17.974;2023-03-25T11:26:19;98972.81;;;0.59;97.11
71476;BME280;59286;59.274;17.974;2023-03-25T11:28:48;98969.41;;;0.68;97.48
71476;BME280;59286;59.274;17.974;2023-03-25T11:31:21;98960.13;;;0.67;97.23
71476;BME280;59286;59.274;17.974;2023-03-25T11:36:31;98948.34;;;0.56;97.31
71476;BME280;59286;59.274;17.974;2023-03-25T11:39:02;98952.31;;;0.44;98.38
71476;BME280;59286;59.274;17.974;2023-03-25T11:41:34;98970.06;;;0.45;98.72
71476;BME280;59286;59.274;17.974;2023-03-25T11:44:01;98957.50;;;0.39;99.16
71476;BME280;59286;59.274;17.974;2023-03-25T11:46:27;98967.81;;;0.34;99.51
71476;BME280;59286;59.274;17.974;2023-03-25T11:48:53;98967.34;;;0.27;98.96
71476;BME280;59286;59.274;17.974;2023-03-25T11:51:30;98976.88;;;0.26;100.00
71476;BME280;59286;59.274;17.974;2023-03-25T11:53:59;98977.44;;;0.23;100.00
71476;BME280;59286;59.274;17.974;2023-03-25T11:56:33;98983.88;;;0.26;100.00
71476;BME280;59286;59.274;17.974;2023-03-25T11:59:02;98994.16;;;0.26;100.00
71476;BME280;59286;59.274;17.974;2023-03-25T12:01:40;99001.91;;;0.26;100.00
71476;BME280;59286;59.274;17.974;2023-03-25T12:04:18;99000.88;;;0.22;100.00
71476;BME280;59286;59.274;17.974;2023-03-25T12:07:00;99016.56;;;0.25;100.00
71476;BME280;59286;59.274;17.974;2023-03-25T12:09:28;99035.88;;;0.33;100.00
71476;BME280;59286;59.274;17.974;2023-03-25T12:12:02;99034.56;;;0.35;100.00
71476;BME280;59286;59.274;17.974;2023-03-25T12:17:32;99044.06;;;0.40;100.00
71476;BME280;59286;59.274;17.974;2023-03-25T12:20:26;99050.28;;;0.39;100.00
71476;BME280;59286;59.274;17.974;2023-03-25T12:23:09;99054.13;;;0.36;99.86
71476;BME280;59286;59.274;17.974;2023-03-25T12:26:02;99052.88;;;0.29;99.97
71476;BME280;59286;59.274;17.974;2023-03-25T12:31:25;99030.47;;;0.29;100.00
71476;BME280;59286;59.274;17.974;2023-03-25T12:34:08;99032.75;;;0.41;99.98
71476;BME280;59286;59.274;17.974;2023-03-25T12:37:01;99035.28;;;0.46;100.00
71476;BME280;59286;59.274;17.974;2023-03-25T12:42:49;99041.41;;;0.55;100.00
71476;BME280;59286;59.274;17.974;2023-03-25T12:51:30;99045.28;;;0.57;100.00
71476;BME280;59286;59.274;17.974;2023-03-25T12:54:14;99041.91;;;0.57;100.00
71476;BME280;59286;59.274;17.974;2023-03-25T13:07:24;99053.50;;;0.59;100.00
71476;BME280;59286;59.274;17.974;2023-03-25T13:12:42;99049.69;;;0.47;98.99
71476;BME280;59286;59.274;17.974;2023-03-25T13:15:23;99044.88;;;0.35;99.31
71476;BME280;59286;59.274;17.974;2023-03-25T13:20:26;99055.44;;;0.34;99.65
71476;BME280;59286;59.274;17.974;2023-03-25T13:22:56;99062.09;;;0.45;98.86
71476;BME280;59286;59.274;17.974;2023-03-25T13:25:33;99055.69;;;0.37;98.97
71476;BME280;59286;59.274;17.974;2023-03-25T13:28:03;99071.16;;;0.32;98.81
71476;BME280;59286;59.274;17.974;2023-03-25T13:30:33;99070.41;;;0.27;98.18
71476;BME280;59286;59.274;17.974;2023-03-25T13:33:18;99078.94;;;0.22;98.86
71476;BME280;59286;59.274;17.974;2023-03-25T13:35:54;99067.84;;;0.22;98.67
71476;BME280;59286;59.274;17.974;2023-03-25T13:38:29;99068.81;;;0.36;98.15
71476;BME280;59286;59.274;17.974;2023-03-25T13:41:25;99065.72;;;0.34;98.22
71476;BME280;59286;59.274;17.974;2023-03-25T13:44:07;99061.13;;;0.31;97.55
71476;BME280;59286;59.274;17.974;2023-03-25T13:46:38;99071.47;;;0.26;97.75
71476;BME280;59286;59.274;17.974;2023-03-25T13:49:12;99071.44;;;0.31;97.96
71476;BME280;59286;59.274;17.974;2023-03-25T13:51:39;99073.25;;;0.25;97.47
71476;BME280;59286;59.274;17.974;2023-03-25T13:54:13;99070.44;;;0.22;97.71
71476;BME280;59286;59.274;17.974;2023-03-25T13:57:11;99068.13;;;0.15;98.23
71476;BME280;59286;59.274;17.974;2023-03-25T13:59:49;99081.50;;;0.27;98.25
71476;BME280;59286;59.274;17.974;2023-03-25T14:02:43;99077.13;;;0.28;97.60
71476;BME280;59286;59.274;17.974;2023-03-25T14:10:45;99075.56;;;0.27;97.53
71476;BME280;59286;59.274;17.974;2023-03-25T14:13:34;99065.72;;;0.34;96.51
71476;BME280;59286;59.274;17.974;2023-03-25T14:16:07;99067.31;;;0.25;96.57
71476;BME280;59286;59.274;17.974;2023-03-25T14:18:54;99079.19;;;0.26;96.68
71476;BME280;59286;59.274;17.974;2023-03-25T14:24:09;99082.22;;;0.38;96.80
71476;BME280;59286;59.274;17.974;2023-03-25T14:26:35;99070.41;;;0.27;96.41
71476;BME280;59286;59.274;17.974;2023-03-25T14:29:20;99086.91;;;0.26;96.34
71476;BME280;59286;59.274;17.974;2023-03-25T14:34:33;99080.78;;;0.17;94.95
71476;BME280;59286;59.274;17.974;2023-03-25T14:44:37;99093.09;;;0.25;95.62
71476;BME280;59286;59.274;17.974;2023-03-25T14:50:05;99087.94;;;0.25;95.44
71476;BME280;59286;59.274;17.974;2023-03-25T14:52:51;99085.91;;;0.22;94.87